Time;durP1;ratioP1;P1;durP2;ratioP2;P2;SDS_P1;SDS_P2;PMS_P1;PMS_P2;Temp;Humidity;BMP_temperature;BMP_pressure;BME280_temperature;BME280_humidity;BME280_pressure;Samples;Min_cycle;Max_cycle;Signal;HPM_P1;HPM_P2
2022/09/12 00:01:10;;;;;;;6.68;1.77;;;10.50;99.90;;;;;;4969013;28;20061;-58
2022/09/12 00:03:39;;;;;;;5.72;1.40;;;10.60;99.90;;;;;;4966685;28;20037;-58
2022/09/12 00:06:09;;;;;;;2.03;1.10;;;10.50;99.90;;;;;;4962076;28;20052;-57
2022/09/12 00:08:36;;;;;;;2.88;1.67;;;10.50;99.90;;;;;;4970700;28;20034;-60
2022/09/12 00:11:06;;;;;;;1.35;1.25;;;10.50;99.90;;;;;;4974898;28;20589;-58
2022/09/12 00:13:33;;;;;;;1.98;1.23;;;10.50;99.90;;;;;;4978441;28;20037;-58
2022/09/12 00:16:14;;;;;;;3.78;1.20;;;10.50;99.90;;;;;;4975779;28;20044;-58
2022/09/12 00:18:43;;;;;;;4.18;0.90;;;10.50;99.90;;;;;;4968393;28;20053;-57
2022/09/12 00:21:11;;;;;;;2.15;1.77;;;10.50;99.90;;;;;;4980573;28;20041;-58
2022/09/12 00:23:38;;;;;;;2.00;1.42;;;10.40;99.90;;;;;;4975634;28;20571;-58
2022/09/12 00:26:06;;;;;;;1.60;1.38;;;10.40;99.90;;;;;;4975649;28;20366;-57
2022/09/12 00:28:35;;;;;;;7.50;1.30;;;10.40;99.90;;;;;;4979432;28;20155;-58
2022/09/12 00:31:11;;;;;;;3.13;1.42;;;10.40;99.90;;;;;;4973269;28;20043;-58
2022/09/12 00:33:40;;;;;;;2.88;1.65;;;10.40;99.90;;;;;;4967258;28;20045;-58
2022/09/12 00:36:10;;;;;;;1.65;1.08;;;10.40;99.90;;;;;;4970659;28;20846;-57
2022/09/12 00:38:40;;;;;;;1.38;1.15;;;10.40;99.90;;;;;;4973646;28;20051;-58
2022/09/12 00:41:15;;;;;;;5.15;1.30;;;10.30;99.90;;;;;;4968998;28;20108;-58
2022/09/12 00:43:47;;;;;;;2.40;1.17;;;10.30;99.90;;;;;;4974075;28;20049;-58
2022/09/12 00:46:40;;;;;;;1.30;1.17;;;10.30;99.90;;;;;;4979038;28;20041;-58
2022/09/12 00:49:26;;;;;;;2.38;1.15;;;10.30;99.90;;;;;;4974013;28;20033;-58
2022/09/12 00:52:03;;;;;;;10.73;1.55;;;10.30;99.90;;;;;;4972847;28;20029;-58
2022/09/12 00:54:36;;;;;;;3.13;1.27;;;10.30;99.90;;;;;;4970500;28;20338;-58
2022/09/12 00:57:08;;;;;;;2.50;1.35;;;10.20;99.90;;;;;;4980054;28;20041;-58
2022/09/12 00:59:42;;;;;;;5.63;1.48;;;10.20;99.90;;;;;;4973623;28;20306;-58
2022/09/12 01:02:10;;;;;;;2.53;1.48;;;10.20;99.90;;;;;;4966709;28;20038;-58
2022/09/12 01:04:40;;;;;;;1.98;1.30;;;10.20;99.90;;;;;;4976434;28;20152;-58
2022/09/12 01:07:08;;;;;;;2.50;1.40;;;10.10;99.90;;;;;;4953249;28;20117;-59
2022/09/12 01:09:37;;;;;;;2.47;1.42;;;10.10;99.90;;;;;;4974978;28;20809;-58
2022/09/12 01:12:05;;;;;;;2.88;1.55;;;10.10;99.90;;;;;;4976308;28;20045;-58
2022/09/12 01:14:34;;;;;;;2.83;0.90;;;10.00;99.90;;;;;;4974226;28;20380;-58
2022/09/12 01:17:01;;;;;;;1.98;1.25;;;10.00;99.90;;;;;;4980566;28;20037;-58
2022/09/12 01:19:52;;;;;;;4.63;1.23;;;10.00;99.90;;;;;;4946885;28;20233;-58
2022/09/12 01:22:44;;;;;;;2.47;1.70;;;10.00;99.90;;;;;;4973065;28;20026;-57
2022/09/12 01:25:37;;;;;;;1.92;1.23;;;10.00;99.90;;;;;;4968548;28;20647;-59
2022/09/12 01:28:28;;;;;;;1.65;1.55;;;10.00;99.90;;;;;;4974452;28;20785;-57
2022/09/12 01:31:14;;;;;;;1.60;1.00;;;10.00;99.90;;;;;;4976958;28;20041;-56
2022/09/12 01:33:53;;;;;;;1.58;1.20;;;10.00;99.90;;;;;;4969619;28;20145;-57
2022/09/12 01:36:35;;;;;;;2.28;1.20;;;9.90;99.90;;;;;;4960581;28;20330;-58
2022/09/12 01:39:06;;;;;;;2.10;1.60;;;9.90;99.90;;;;;;4974975;28;20072;-58
2022/09/12 01:41:54;;;;;;;3.67;1.38;;;9.90;99.90;;;;;;4975417;28;20056;-57
2022/09/12 01:44:35;;;;;;;2.08;1.02;;;9.90;99.90;;;;;;4978115;28;20566;-58
2022/09/12 01:47:15;;;;;;;1.27;1.10;;;9.90;99.90;;;;;;4963370;28;20052;-58
2022/09/12 01:49:48;;;;;;;1.40;1.13;;;9.90;99.90;;;;;;4974052;28;20272;-58
2022/09/12 01:52:31;;;;;;;2.60;1.20;;;9.90;99.90;;;;;;4972807;28;20041;-57
2022/09/12 01:55:22;;;;;;;1.73;0.98;;;9.90;99.90;;;;;;4971520;28;20819;-57
2022/09/12 01:57:55;;;;;;;1.75;1.38;;;9.80;99.90;;;;;;4972049;28;20048;-57
2022/09/12 02:00:22;;;;;;;7.30;2.53;;;9.80;99.90;;;;;;4970692;28;20423;-58
2022/09/12 02:03:16;;;;;;;1.50;1.33;;;9.80;99.90;;;;;;4972261;28;20041;-58
2022/09/12 02:05:51;;;;;;;1.45;1.00;;;9.80;99.90;;;;;;4970212;28;20032;-58
2022/09/12 02:08:40;;;;;;;1.38;1.27;;;9.70;99.90;;;;;;4971673;28;20037;-58
2022/09/12 02:11:10;;;;;;;1.05;0.88;;;9.70;99.90;;;;;;4972929;28;20036;-57
2022/09/12 02:13:57;;;;;;;3.25;1.35;;;9.70;99.90;;;;;;4973512;28;20041;-59
2022/09/12 02:16:34;;;;;;;2.40;1.20;;;9.60;99.90;;;;;;4975743;28;20351;-58
2022/09/12 02:19:11;;;;;;;1.40;1.30;;;9.60;99.90;;;;;;4981457;28;20446;-58
2022/09/12 02:21:44;;;;;;;3.80;1.58;;;9.50;99.90;;;;;;4982066;28;20041;-57
2022/09/12 02:24:14;;;;;;;1.90;1.30;;;9.50;99.90;;;;;;4970873;28;20824;-58
2022/09/12 02:26:56;;;;;;;7.55;1.30;;;9.40;99.90;;;;;;4971463;28;20037;-58
2022/09/12 02:29:23;;;;;;;1.30;0.98;;;9.40;99.90;;;;;;4981639;28;20037;-57
2022/09/12 02:32:01;;;;;;;1.10;1.00;;;9.40;99.90;;;;;;4977347;28;20038;-58
2022/09/12 02:34:52;;;;;;;1.60;1.10;;;9.40;99.90;;;;;;4973965;28;20043;-58
2022/09/12 02:37:56;;;;;;;2.00;1.00;;;9.40;99.90;;;;;;4975407;28;20044;-58
2022/09/12 02:40:24;;;;;;;1.50;1.13;;;9.40;99.90;;;;;;4975430;28;20770;-57
2022/09/12 02:42:51;;;;;;;1.15;0.85;;;9.30;99.90;;;;;;4979471;28;20918;-57
2022/09/12 02:45:19;;;;;;;3.72;1.20;;;9.40;99.90;;;;;;4974717;28;20458;-57
2022/09/12 02:47:57;;;;;;;1.45;1.20;;;9.40;99.90;;;;;;4975192;28;20227;-58
2022/09/12 02:50:25;;;;;;;1.83;1.10;;;9.30;99.90;;;;;;4974366;28;20048;-57
2022/09/12 02:52:54;;;;;;;2.08;1.20;;;9.30;99.90;;;;;;4969253;28;20935;-57
2022/09/12 02:55:33;;;;;;;1.13;1.00;;;9.30;99.90;;;;;;4970632;28;20855;-56
2022/09/12 02:58:07;;;;;;;4.13;0.95;;;9.30;99.90;;;;;;4975017;28;20119;-57
2022/09/12 03:00:40;;;;;;;2.10;0.90;;;9.30;99.90;;;;;;4977474;28;20032;-57
2022/09/12 03:03:07;;;;;;;0.85;0.85;;;9.30;99.90;;;;;;4980259;28;20359;-58
2022/09/12 03:05:56;;;;;;;4.13;1.08;;;9.30;99.90;;;;;;4981211;28;20759;-58
2022/09/12 03:08:43;;;;;;;1.15;1.00;;;9.30;99.90;;;;;;4978420;28;20041;-58
2022/09/12 03:11:22;;;;;;;0.95;0.93;;;9.30;99.90;;;;;;4978466;28;20139;-57
2022/09/12 03:14:13;;;;;;;0.85;0.82;;;9.20;99.90;;;;;;4974139;28;20036;-57
2022/09/12 03:16:50;;;;;;;0.98;0.98;;;9.20;99.90;;;;;;4978333;28;20855;-57
2022/09/12 03:19:23;;;;;;;1.73;1.00;;;9.20;99.90;;;;;;4978444;28;20396;-59
2022/09/12 03:22:07;;;;;;;3.13;0.88;;;9.20;99.90;;;;;;4975217;28;20203;-57
2022/09/12 03:24:39;;;;;;;4.68;0.93;;;9.20;99.90;;;;;;4957903;28;20162;-57
2022/09/12 03:27:21;;;;;;;0.90;0.90;;;9.20;99.90;;;;;;4956516;28;20128;-57
2022/09/12 03:29:50;;;;;;;0.93;0.85;;;9.20;99.90;;;;;;4972529;28;20065;-59
2022/09/12 03:32:17;;;;;;;1.95;1.30;;;9.20;99.90;;;;;;4972197;28;20901;-58
2022/09/12 03:34:45;;;;;;;3.10;1.25;;;9.20;99.90;;;;;;4979606;28;20106;-58
2022/09/12 03:37:12;;;;;;;1.20;1.10;;;9.10;99.90;;;;;;4975959;28;20147;-57
2022/09/12 03:39:39;;;;;;;2.28;1.10;;;9.10;99.90;;;;;;4980331;28;20041;-57
2022/09/12 03:42:07;;;;;;;1.10;0.90;;;9.10;99.90;;;;;;4970986;28;20048;-57
2022/09/12 03:44:33;;;;;;;1.13;1.10;;;9.10;99.90;;;;;;4977968;28;20041;-57
2022/09/12 03:47:01;;;;;;;5.18;1.48;;;9.10;99.90;;;;;;4963455;28;20041;-57
2022/09/12 03:49:28;;;;;;;1.60;0.98;;;9.00;99.90;;;;;;4972291;28;20037;-57
2022/09/12 03:51:55;;;;;;;1.05;1.00;;;9.00;99.90;;;;;;4980344;28;20253;-58
2022/09/12 03:54:23;;;;;;;1.63;1.05;;;9.00;99.90;;;;;;4969526;28;20254;-58
2022/09/12 03:56:50;;;;;;;1.30;1.20;;;9.00;99.90;;;;;;4978624;28;20041;-57
2022/09/12 03:59:17;;;;;;;1.55;1.30;;;9.00;99.90;;;;;;4973330;28;20397;-57
2022/09/12 04:01:44;;;;;;;1.35;0.82;;;9.00;99.90;;;;;;4976626;28;20726;-58
2022/09/12 04:04:11;;;;;;;3.50;1.33;;;9.10;99.90;;;;;;4972432;28;20041;-58
2022/09/12 04:06:38;;;;;;;4.82;1.30;;;9.00;99.90;;;;;;4976768;28;20048;-57
2022/09/12 04:09:05;;;;;;;1.10;1.00;;;9.10;99.90;;;;;;4973307;28;20033;-55
2022/09/12 04:11:34;;;;;;;1.20;1.10;;;9.00;99.90;;;;;;4975373;28;20045;-56
2022/09/12 04:14:01;;;;;;;1.77;1.00;;;9.10;99.90;;;;;;4980184;28;20784;-56
2022/09/12 04:16:29;;;;;;;2.17;1.40;;;9.10;99.90;;;;;;4972250;28;20049;-57
2022/09/12 04:18:56;;;;;;;1.10;1.10;;;9.00;99.90;;;;;;4956897;28;20813;-58
2022/09/12 04:21:23;;;;;;;0.70;0.70;;;9.00;99.90;;;;;;4976423;28;20794;-57
2022/09/12 04:23:51;;;;;;;1.23;0.82;;;9.00;99.90;;;;;;4975579;28;20940;-57
2022/09/12 04:26:19;;;;;;;3.47;1.23;;;9.00;99.90;;;;;;4983457;28;20102;-57
2022/09/12 04:28:47;;;;;;;1.63;1.23;;;9.00;99.90;;;;;;4977271;28;20037;-56
2022/09/12 04:31:21;;;;;;;1.27;1.17;;;9.00;99.90;;;;;;4976453;28;20218;-56
2022/09/12 04:33:59;;;;;;;0.80;0.80;;;8.90;99.90;;;;;;4961685;28;20045;-55
2022/09/12 04:36:28;;;;;;;3.55;1.10;;;8.90;99.90;;;;;;4973221;28;20195;-55
2022/09/12 04:38:55;;;;;;;2.45;1.15;;;8.90;99.90;;;;;;4971650;28;20316;-56
2022/09/12 04:41:23;;;;;;;;;;;8.90;99.90;;;;;;4970839;28;20959;-55
2022/09/12 04:43:51;;;;;;;;;;;8.90;99.90;;;;;;4974450;28;20274;-56
2022/09/12 04:46:19;;;;;;;1.27;1.08;;;8.90;99.90;;;;;;4987461;28;19928;-56
2022/09/12 04:48:47;;;;;;;2.17;1.13;;;8.90;99.90;;;;;;4975701;28;20033;-55
2022/09/12 04:51:22;;;;;;;1.00;0.98;;;8.80;99.90;;;;;;4952774;28;20943;-55
2022/09/12 04:53:51;;;;;;;0.82;0.82;;;8.80;99.90;;;;;;4971931;28;20877;-56
2022/09/12 04:56:20;;;;;;;3.22;1.08;;;8.90;99.90;;;;;;4965140;28;20133;-57
2022/09/12 04:58:48;;;;;;;1.48;1.35;;;8.90;99.90;;;;;;4976244;28;20131;-57
2022/09/12 05:01:21;;;;;;;0.90;0.90;;;8.90;99.90;;;;;;4972229;28;20091;-57
2022/09/12 05:03:49;;;;;;;5.57;1.00;;;8.90;99.90;;;;;;4978046;28;20056;-57
2022/09/12 05:06:19;;;;;;;1.83;1.08;;;8.90;99.90;;;;;;4972795;28;20034;-57
2022/09/12 05:08:46;;;;;;;2.28;0.93;;;8.90;99.90;;;;;;4973123;28;20037;-57
2022/09/12 05:11:16;;;;;;;4.68;1.20;;;8.90;99.90;;;;;;4975891;28;20050;-59
2022/09/12 05:13:50;;;;;;;1.52;1.10;;;8.90;99.90;;;;;;4964468;28;20036;-57
2022/09/12 05:16:19;;;;;;;1.35;1.20;;;8.90;99.90;;;;;;4978813;28;20566;-58
2022/09/12 05:18:46;;;;;;;1.38;1.08;;;8.80;99.90;;;;;;4979064;28;20829;-57
2022/09/12 05:21:16;;;;;;;3.03;1.20;;;8.80;99.90;;;;;;4978902;28;20049;-57
2022/09/12 05:23:44;;;;;;;5.82;1.27;;;8.80;99.90;;;;;;4971847;28;20826;-60
2022/09/12 05:26:13;;;;;;;1.60;1.38;;;8.90;99.90;;;;;;4971308;28;20778;-60
2022/09/12 05:28:42;;;;;;;1.33;1.20;;;8.90;99.90;;;;;;4962678;28;20083;-60
2022/09/12 05:31:15;;;;;;;1.25;1.13;;;8.90;99.90;;;;;;4965419;28;20072;-60
2022/09/12 05:33:45;;;;;;;3.67;1.63;;;9.00;99.90;;;;;;4973162;28;20481;-56
2022/09/12 05:36:17;;;;;;;1.63;1.20;;;9.00;99.90;;;;;;4972963;28;20432;-57
2022/09/12 05:38:46;;;;;;;1.10;1.00;;;9.10;99.90;;;;;;4972850;28;20114;-55
2022/09/12 05:41:15;;;;;;;2.85;1.17;;;9.10;99.90;;;;;;4977902;28;20049;-56
2022/09/12 05:43:52;;;;;;;1.98;1.38;;;9.20;99.90;;;;;;4980399;28;20575;-57
2022/09/12 05:46:21;;;;;;;2.40;1.50;;;9.30;99.90;;;;;;4977054;28;20761;-56
2022/09/12 05:48:49;;;;;;;1.73;1.50;;;9.40;99.90;;;;;;4983014;28;20041;-57
2022/09/12 05:51:27;;;;;;;2.95;1.58;;;9.50;99.90;;;;;;4971577;28;20044;-56
2022/09/12 05:53:56;;;;;;;4.50;1.52;;;9.60;99.90;;;;;;4978592;28;20255;-56
2022/09/12 05:56:26;;;;;;;4.00;1.65;;;9.60;99.90;;;;;;4980685;28;20212;-56
2022/09/12 05:59:02;;;;;;;3.25;1.30;;;9.70;99.90;;;;;;4974058;28;20072;-57
2022/09/12 06:01:32;;;;;;;7.63;1.27;;;9.80;99.90;;;;;;4976315;28;20164;-57
2022/09/12 06:04:02;;;;;;;4.63;1.60;;;9.90;99.90;;;;;;4979798;28;20072;-56
2022/09/12 06:06:30;;;;;;;2.88;1.40;;;10.00;99.90;;;;;;4975557;28;20160;-57
2022/09/12 06:09:00;;;;;;;5.60;1.55;;;10.10;99.90;;;;;;4977968;28;20570;-58
2022/09/12 06:11:29;;;;;;;1.30;1.20;;;10.20;99.90;;;;;;4979391;28;20433;-55
2022/09/12 06:13:57;;;;;;;2.17;1.10;;;10.30;99.90;;;;;;4980045;28;20564;-55
2022/09/12 06:16:29;;;;;;;2.75;1.67;;;10.40;99.90;;;;;;4973448;28;20053;-54
2022/09/12 06:18:59;;;;;;;4.55;1.30;;;10.50;99.90;;;;;;4977732;28;20115;-57
2022/09/12 06:21:29;;;;;;;2.90;1.60;;;10.50;99.90;;;;;;4976558;28;20034;-56
2022/09/12 06:23:57;;;;;;;1.77;1.30;;;10.70;99.90;;;;;;4978601;28;20045;-57
2022/09/12 06:26:26;;;;;;;6.70;1.80;;;10.80;99.90;;;;;;4969854;28;20142;-56
2022/09/12 06:28:55;;;;;;;2.22;1.38;;;10.90;99.90;;;;;;4977191;28;20509;-56
2022/09/12 06:31:25;;;;;;;3.88;1.38;;;11.00;99.90;;;;;;4980430;28;20553;-56
2022/09/12 06:33:54;;;;;;;2.65;1.65;;;11.10;99.90;;;;;;4983550;28;20531;-55
2022/09/12 06:36:26;;;;;;;2.25;1.50;;;11.20;99.90;;;;;;4976062;28;20326;-57
2022/09/12 06:39:06;;;;;;;2.88;1.63;;;11.40;99.90;;;;;;4966986;28;20144;-57
2022/09/12 06:41:33;;;;;;;2.50;1.58;;;11.70;99.90;;;;;;4977143;28;20876;-57
2022/09/12 06:44:01;;;;;;;2.45;1.20;;;12.10;99.90;;;;;;4982373;28;20045;-56
2022/09/12 06:46:29;;;;;;;5.35;1.30;;;12.40;99.90;;;;;;4975307;28;20038;-56
2022/09/12 06:48:59;;;;;;;2.08;1.23;;;12.70;99.90;;;;;;4975691;28;20107;-57
2022/09/12 06:51:27;;;;;;;7.50;1.48;;;12.90;99.90;;;;;;4984347;28;20540;-57
2022/09/12 06:53:56;;;;;;;5.57;2.35;;;13.10;99.90;;;;;;4966301;28;20734;-57
2022/09/12 06:56:25;;;;;;;2.95;1.23;;;13.20;99.90;;;;;;4970362;28;20049;-56
2022/09/12 06:58:55;;;;;;;1.92;1.10;;;13.30;99.90;;;;;;4971913;28;20041;-57
2022/09/12 07:01:27;;;;;;;3.15;1.05;;;13.30;99.90;;;;;;4981724;28;20374;-56
2022/09/12 07:03:57;;;;;;;2.33;1.30;;;13.40;99.90;;;;;;4981848;28;20233;-57
2022/09/12 07:06:30;;;;;;;3.97;1.23;;;13.50;99.90;;;;;;4975641;28;20403;-55
2022/09/12 07:08:59;;;;;;;4.32;1.48;;;13.50;99.90;;;;;;4978448;28;20690;-52
2022/09/12 07:11:32;;;;;;;1.73;1.60;;;13.50;99.90;;;;;;4977343;28;20138;-57
2022/09/12 07:14:01;;;;;;;1.17;1.05;;;13.60;99.90;;;;;;4973571;28;20049;-55
2022/09/12 07:16:29;;;;;;;3.30;1.48;;;13.70;99.90;;;;;;4975067;28;20033;-56
2022/09/12 07:18:59;;;;;;;1.48;1.02;;;13.80;99.90;;;;;;4949025;28;20037;-56
2022/09/12 07:21:27;;;;;;;2.60;1.02;;;13.90;99.90;;;;;;4974061;28;20151;-56
2022/09/12 07:23:56;;;;;;;1.35;1.13;;;13.90;99.90;;;;;;4972159;28;20606;-56
2022/09/12 07:26:25;;;;;;;1.58;1.38;;;14.00;99.90;;;;;;4975617;28;20175;-57
2022/09/12 07:28:54;;;;;;;2.03;1.17;;;14.50;99.90;;;;;;4973880;28;20037;-57
2022/09/12 07:31:39;;;;;;;4.50;1.20;;;15.20;99.90;;;;;;4979359;28;20037;-55
2022/09/12 07:34:06;;;;;;;2.17;1.20;;;15.90;99.90;;;;;;4975369;28;20061;-56
2022/09/12 07:36:33;;;;;;;2.03;1.00;;;16.40;99.90;;;;;;4973986;28;20041;-56
2022/09/12 07:39:01;;;;;;;3.50;0.80;;;16.80;99.90;;;;;;4975475;28;20049;-55
2022/09/12 07:41:30;;;;;;;1.23;1.10;;;17.20;99.90;;;;;;4975098;28;20050;-56
2022/09/12 07:43:59;;;;;;;3.13;1.35;;;17.60;99.90;;;;;;4977048;28;20231;-56
2022/09/12 07:46:28;;;;;;;1.05;0.80;;;18.00;99.90;;;;;;4976533;28;20042;-56
2022/09/12 07:48:57;;;;;;;6.35;1.55;;;18.40;99.90;;;;;;4972421;28;20755;-61
2022/09/12 07:51:27;;;;;;;3.15;0.90;;;18.80;99.90;;;;;;4966595;28;20375;-58
2022/09/12 07:53:55;;;;;;;3.63;0.98;;;19.20;99.90;;;;;;4971445;28;20102;-59
2022/09/12 07:56:23;;;;;;;1.20;0.80;;;19.50;99.90;;;;;;4979216;28;20116;-57
2022/09/12 07:58:57;;;;;;;1.35;0.88;;;19.80;99.90;;;;;;4967366;28;20563;-57
2022/09/12 08:01:26;;;;;;;1.65;1.08;;;20.10;99.90;;;;;;4978790;28;20099;-59
2022/09/12 08:03:57;;;;;;;3.92;1.27;;;20.40;99.90;;;;;;4975554;28;20041;-59
2022/09/12 08:06:27;;;;;;;3.40;0.90;;;20.60;98.20;;;;;;4978370;28;20327;-58
2022/09/12 08:08:55;;;;;;;4.78;1.20;;;20.70;96.30;;;;;;4982331;28;20199;-57
2022/09/12 08:11:24;;;;;;;1.77;0.93;;;20.80;96.10;;;;;;4974017;28;20068;-56
2022/09/12 08:13:54;;;;;;;6.18;1.20;;;20.90;93.60;;;;;;4976630;28;20045;-57
2022/09/12 08:16:25;;;;;;;1.15;1.05;;;21.00;94.20;;;;;;4973524;28;20294;-57
2022/09/12 08:18:52;;;;;;;7.05;1.02;;;21.10;96.60;;;;;;4973233;28;20037;-60
2022/09/12 08:21:26;;;;;;;6.35;1.80;;;21.30;92.40;;;;;;4974795;28;20056;-57
2022/09/12 08:23:57;;;;;;;8.77;1.48;;;21.40;93.20;;;;;;4974125;28;20219;-58
2022/09/12 08:26:24;;;;;;;4.28;1.10;;;21.50;90.00;;;;;;4979567;28;20047;-58
2022/09/12 08:28:52;;;;;;;4.25;1.42;;;21.50;86.30;;;;;;4972172;28;20104;-57
2022/09/12 08:31:21;;;;;;;5.80;1.27;;;21.60;86.60;;;;;;4966752;28;20831;-57
2022/09/12 08:33:49;;;;;;;2.67;1.00;;;21.60;84.00;;;;;;4971272;28;20042;-58
2022/09/12 08:36:22;;;;;;;1.92;1.00;;;21.70;87.30;;;;;;4972794;28;20334;-57
2022/09/12 08:38:56;;;;;;;3.58;0.90;;;21.80;84.60;;;;;;4954830;28;20530;-59
2022/09/12 08:41:45;;;;;;;2.08;0.93;;;21.90;81.70;;;;;;4979743;28;20389;-58
2022/09/12 08:44:37;;;;;;;1.33;0.93;;;22.00;82.70;;;;;;4970649;28;20040;-56
2022/09/12 08:47:16;;;;;;;5.93;1.08;;;22.30;87.20;;;;;;4976958;28;20768;-58
2022/09/12 08:50:11;;;;;;;4.18;1.20;;;22.50;82.00;;;;;;4972997;28;20928;-56
2022/09/12 08:53:01;;;;;;;2.05;1.00;;;22.60;77.50;;;;;;4970005;28;20045;-56
2022/09/12 08:55:39;;;;;;;0.93;0.80;;;22.70;75.50;;;;;;4974692;28;20072;-58
2022/09/12 08:58:22;;;;;;;2.42;1.48;;;22.80;74.30;;;;;;4963818;28;20123;-57
2022/09/12 09:01:01;;;;;;;3.92;1.00;;;22.80;74.70;;;;;;4976241;28;20048;-57
2022/09/12 09:03:53;;;;;;;3.38;1.95;;;23.00;72.60;;;;;;4971513;28;20041;-57
2022/09/12 09:06:40;;;;;;;8.65;2.15;;;23.10;76.90;;;;;;4979827;28;20037;-57
2022/09/12 09:09:18;;;;;;;1.27;0.80;;;23.40;78.90;;;;;;4974106;28;20041;-57
2022/09/12 09:12:36;;;;;;;1.98;0.70;;;23.70;75.70;;;;;;4977912;28;20041;-56
2022/09/12 09:15:32;;;;;;;1.98;1.10;;;24.00;73.70;;;;;;4877764;28;20762;-58
2022/09/12 09:18:09;;;;;;;2.40;1.20;;;24.10;71.50;;;;;;4880394;28;20063;-58
2022/09/12 09:20:51;;;;;;;1.42;0.90;;;24.20;66.40;;;;;;4957499;28;20601;-59
2022/09/12 09:23:39;;;;;;;2.13;1.13;;;24.30;71.70;;;;;;4976504;28;20118;-59
2022/09/12 09:26:15;;;;;;;2.53;1.80;;;24.40;73.30;;;;;;4980940;28;20571;-59
2022/09/12 09:28:51;;;;;;;4.70;1.30;;;24.30;74.90;;;;;;4979326;28;20404;-60
2022/09/12 09:31:22;;;;;;;6.63;1.30;;;24.30;76.60;;;;;;4957561;28;20363;-60
2022/09/12 09:33:52;;;;;;;3.88;1.23;;;24.40;74.60;;;;;;4970820;28;20627;-60
2022/09/12 09:36:22;;;;;;;3.72;1.30;;;24.40;73.70;;;;;;4974301;28;20566;-60
2022/09/12 09:38:59;;;;;;;6.25;1.42;;;24.50;76.00;;;;;;4973897;28;20991;-58
2022/09/12 09:42:07;;;;;;;4.82;2.00;;;24.60;77.90;;;;;;4983167;28;20288;-65
2022/09/12 09:44:36;;;;;;;2.13;1.30;;;24.80;81.90;;;;;;4966954;28;20049;-57
2022/09/12 09:47:04;;;;;;;2.63;1.50;;;24.90;79.90;;;;;;4968165;28;20046;-58
2022/09/12 09:49:35;;;;;;;2.90;1.65;;;25.10;80.90;;;;;;4970046;28;20041;-55
2022/09/12 09:52:10;;;;;;;8.25;2.03;;;25.30;80.30;;;;;;4974554;28;20060;-57
2022/09/12 09:54:59;;;;;;;5.95;1.92;;;25.50;81.30;;;;;;4972387;28;20223;-56
2022/09/12 09:57:35;;;;;;;4.13;1.95;;;25.70;82.30;;;;;;4982896;28;20759;-54
2022/09/12 10:00:26;;;;;;;6.00;1.77;;;25.80;80.50;;;;;;4973107;28;20992;-56
2022/09/12 10:03:52;;;;;;;9.45;2.15;;;26.00;78.10;;;;;;4983728;28;20515;-57
2022/09/12 10:06:21;;;;;;;4.28;2.33;;;26.10;76.20;;;;;;4950700;28;20060;-58
2022/09/12 10:09:06;;;;;;;6.45;2.17;;;26.20;73.40;;;;;;4974914;28;20048;-58
2022/09/12 10:11:34;;;;;;;3.03;2.20;;;26.20;74.60;;;;;;4971036;28;20045;-58
2022/09/12 10:14:03;;;;;;;2.38;1.63;;;26.20;75.30;;;;;;4975065;28;20355;-58
2022/09/12 10:16:52;;;;;;;3.78;2.72;;;26.30;76.70;;;;;;4974485;28;20034;-58
2022/09/12 10:19:37;;;;;;;2.90;1.95;;;26.40;71.60;;;;;;4971219;28;20056;-57
2022/09/12 10:22:06;;;;;;;4.22;2.58;;;26.40;76.70;;;;;;4977913;28;20781;-58
2022/09/12 10:24:36;;;;;;;2.47;2.25;;;26.60;76.20;;;;;;4964306;28;20056;-58
2022/09/12 10:27:19;;;;;;;9.00;1.95;;;26.60;75.60;;;;;;4976609;28;20037;-58
2022/09/12 10:29:59;;;;;;;2.50;2.30;;;26.70;74.00;;;;;;4975262;28;20107;-62
2022/09/12 10:32:42;;;;;;;2.60;2.15;;;26.80;75.70;;;;;;4982068;28;20139;-58
2022/09/12 10:35:24;;;;;;;2.40;2.20;;;27.10;73.20;;;;;;4969278;28;20151;-58
2022/09/12 10:38:04;;;;;;;4.55;2.70;;;27.20;74.00;;;;;;4979673;28;20099;-58
2022/09/12 10:40:39;;;;;;;3.88;2.40;;;27.10;73.00;;;;;;4987517;28;20053;-58
2022/09/12 10:43:25;;;;;;;5.05;2.30;;;27.10;73.60;;;;;;4965038;28;20053;-58
2022/09/12 10:45:57;;;;;;;3.03;1.70;;;27.10;75.40;;;;;;4980138;28;20152;-57
2022/09/12 10:48:34;;;;;;;2.90;2.50;;;27.10;74.70;;;;;;4983960;28;20373;-58
2022/09/12 10:51:02;;;;;;;5.07;2.45;;;27.20;71.30;;;;;;4983358;28;20164;-58
2022/09/12 10:53:41;;;;;;;5.47;2.72;;;27.20;71.30;;;;;;4976327;28;20044;-58
2022/09/12 10:56:11;;;;;;;5.05;2.35;;;27.20;70.80;;;;;;4978084;28;20532;-57
2022/09/12 10:59:07;;;;;;;4.43;2.40;;;27.20;69.70;;;;;;4974977;28;20042;-56
2022/09/12 11:01:40;;;;;;;4.55;1.98;;;27.10;72.30;;;;;;4982702;28;20854;-56
2022/09/12 11:04:29;;;;;;;5.07;2.92;;;27.00;73.00;;;;;;4978759;28;20198;-57
2022/09/12 11:07:11;;;;;;;3.33;2.55;;;27.10;72.60;;;;;;4983360;28;20053;-57
2022/09/12 11:09:57;;;;;;;2.25;2.03;;;27.10;70.30;;;;;;4974219;28;20181;-57
2022/09/12 11:12:30;;;;;;;3.33;2.35;;;27.10;71.70;;;;;;4979055;28;20140;-56
2022/09/12 11:15:12;;;;;;;2.05;1.90;;;27.00;69.30;;;;;;4979470;28;20044;-57
2022/09/12 11:17:52;;;;;;;2.67;2.17;;;26.90;69.50;;;;;;4975600;28;20148;-57
2022/09/12 11:20:29;;;;;;;6.75;1.80;;;26.80;71.50;;;;;;4979848;28;20219;-57
2022/09/12 11:23:21;;;;;;;5.38;1.60;;;26.80;72.70;;;;;;4979460;28;20570;-57
2022/09/12 11:26:10;;;;;;;4.50;2.30;;;26.80;72.90;;;;;;4976212;28;20052;-56
2022/09/12 11:29:00;;;;;;;3.13;2.45;;;26.80;71.50;;;;;;4973371;28;20049;-58
2022/09/12 11:31:51;;;;;;;2.70;1.88;;;26.70;73.80;;;;;;4960308;28;20663;-59
2022/09/12 11:35:02;;;;;;;3.70;1.88;;;26.70;76.10;;;;;;4977529;28;20037;-59
2022/09/12 11:37:33;;;;;;;2.80;2.58;;;26.90;76.80;;;;;;4963264;28;20049;-57
2022/09/12 11:40:16;;;;;;;3.45;2.00;;;26.90;72.70;;;;;;4981666;28;20148;-57
2022/09/12 11:42:45;;;;;;;8.00;2.50;;;26.90;73.60;;;;;;4985568;28;20049;-57
2022/09/12 11:45:18;;;;;;;4.20;2.55;;;27.00;76.40;;;;;;4979368;28;20052;-57
2022/09/12 11:47:51;;;;;;;7.28;1.90;;;27.00;75.20;;;;;;4987288;28;20029;-68
2022/09/12 11:50:30;;;;;;;6.68;2.17;;;27.20;76.00;;;;;;4972730;28;20053;-61
2022/09/12 11:53:22;;;;;;;9.40;2.60;;;27.20;72.30;;;;;;4968692;28;20039;-61
2022/09/12 11:56:05;;;;;;;1.85;1.50;;;27.10;73.10;;;;;;4967880;28;20042;-61
2022/09/12 11:58:35;;;;;;;3.80;2.00;;;27.00;75.50;;;;;;4974967;28;20123;-60
2022/09/12 12:01:13;;;;;;;6.20;2.42;;;26.90;74.30;;;;;;4966179;28;20424;-59
2022/09/12 12:03:43;;;;;;;3.10;2.40;;;26.90;72.60;;;;;;4975568;28;20249;-57
2022/09/12 12:06:13;;;;;;;3.08;2.78;;;26.90;73.70;;;;;;4979588;28;20048;-58
2022/09/12 12:08:43;;;;;;;2.22;2.03;;;26.80;73.40;;;;;;4975338;28;20162;-57
2022/09/12 12:11:13;;;;;;;4.75;1.90;;;26.70;73.90;;;;;;4978074;28;20278;-56
2022/09/12 12:13:53;;;;;;;7.78;3.22;;;26.60;75.30;;;;;;4982009;28;20057;-57
2022/09/12 12:16:24;;;;;;;2.65;1.85;;;26.60;76.40;;;;;;4964303;28;20056;-59
2022/09/12 12:19:00;;;;;;;4.68;2.45;;;26.50;75.80;;;;;;4977827;28;20033;-57
2022/09/12 12:21:30;;;;;;;4.70;2.63;;;26.50;78.50;;;;;;4984178;28;20037;-58
2022/09/12 12:24:07;;;;;;;3.05;2.13;;;26.40;77.00;;;;;;4985097;28;20037;-58
2022/09/12 12:26:38;;;;;;;4.55;1.98;;;26.30;78.20;;;;;;4981571;28;20041;-61
2022/09/12 12:29:10;;;;;;;3.10;1.98;;;26.30;76.50;;;;;;4985006;28;20546;-61
2022/09/12 12:32:03;;;;;;;8.13;2.58;;;26.30;76.80;;;;;;4970330;28;20049;-61
2022/09/12 12:34:35;;;;;;;5.28;2.38;;;26.30;77.60;;;;;;4964625;28;20045;-61
2022/09/12 12:37:18;;;;;;;4.93;2.63;;;26.30;79.60;;;;;;4983205;28;20554;-60
2022/09/12 12:39:49;;;;;;;5.10;2.60;;;26.20;81.00;;;;;;4979457;28;20052;-62
2022/09/12 12:42:35;;;;;;;4.38;2.90;;;26.20;81.00;;;;;;4984002;28;20808;-60
2022/09/12 12:45:28;;;;;;;2.78;1.90;;;26.30;78.60;;;;;;4971330;28;20411;-61
2022/09/12 12:48:00;;;;;;;3.10;2.20;;;26.30;78.30;;;;;;4977872;28;20114;-61
2022/09/12 12:50:44;;;;;;;3.28;2.67;;;26.50;80.10;;;;;;4976624;28;20176;-60
2022/09/12 12:53:26;;;;;;;7.10;3.40;;;26.50;76.20;;;;;;4976360;28;20045;-60
2022/09/12 12:55:55;;;;;;;5.05;2.35;;;26.60;80.10;;;;;;4963062;28;20806;-61
2022/09/12 12:58:29;;;;;;;3.20;2.45;;;26.60;79.30;;;;;;4974980;28;20041;-61
2022/09/12 13:01:19;;;;;;;2.58;1.83;;;26.70;75.50;;;;;;4965244;28;20056;-61
2022/09/12 13:04:00;;;;;;;2.15;1.80;;;26.80;79.30;;;;;;4978721;28;20037;-62
2022/09/12 13:06:43;;;;;;;4.47;2.40;;;26.80;77.90;;;;;;4976605;28;20055;-60
2022/09/12 13:09:24;;;;;;;6.45;2.28;;;26.90;76.50;;;;;;4989939;28;20047;-61
2022/09/12 13:12:10;;;;;;;2.75;2.20;;;26.90;78.40;;;;;;4979550;28;20197;-62
2022/09/12 13:14:50;;;;;;;7.47;3.08;;;27.00;76.10;;;;;;4968730;28;20924;-61
2022/09/12 13:17:30;;;;;;;2.63;2.13;;;27.00;72.60;;;;;;4977355;28;20128;-62
2022/09/12 13:20:07;;;;;;;8.02;1.95;;;27.00;75.20;;;;;;4984093;28;20827;-60
2022/09/12 13:22:54;;;;;;;1.48;1.38;;;27.10;73.70;;;;;;4978005;28;20583;-62
2022/09/12 13:25:31;;;;;;;3.72;2.50;;;27.10;71.40;;;;;;4976766;28;20050;-61
2022/09/12 13:28:10;;;;;;;14.00;1.85;;;27.20;72.10;;;;;;4977404;28;20046;-61
2022/09/12 13:30:42;;;;;;;9.05;2.08;;;27.20;70.80;;;;;;4974991;28;20419;-61